aviador You're here:

KLWC Decoded Metar

LAWRENCE in KS, USA
Report Time2017-09-20 06:52:00
UTC Time2017-09-20 07:33:35
Flight Rules vfr VFR
Wind150° at 12 kt
W.Decomp.*RWY 15: 12.0 kt HW 0.8 kt LCW
RWY 19: 8.6 kt HW 8.3 kt LCW
W.Rank150° ranks 10
Current wind is above 150° avg. (8.4)
Visibility9999 m
Phenomena:N/A
Clouds:N/A
Expected CloudBase > 2,000 ft AGL from Temp-Dew spread
CeilingNone
Temp26°C (ISA +13)
Dew Point21°C (74% RH)
AAT25.9°C
QNH1006 hPa
Density Alt2,858 ft
Elevation830 ft
Report Wrong Elevation
Raw Report
KLWC 200652Z AUTO 15012KT 10SM CLR 26/21 A2972 RMK AO2 SLP053
T02560211=

Extra information for KLWC:More info

Metar Taf Metar & Taf Last 4 Metars F.Rules Stats Wind Profile Meteogram Temp Stats Airport Information Weather charts Add Link Nearby VenuesMetar ALERT Operation Metar Decoded Social comments

AIRNAV info for KLWC
GUT Works, LLC